Augusta, Maine
Current Conditions -  °F | °C
As of 8:53 PM on Saturday 25 Oct 2014 (Local Time) from KAUG Reporting Station
Overcast Overcast  
Wind Chill: 50°   Ceiling: 11000
Heat Index: 50°   Visibility: 10mi
Dew Point: 41°   Wind: 3mph
Humidity: 71%   Direction: 140°SE
Pressure: 29.51"   Gusts: NA
Location:  44.32°N, 69.78°W
Report Text: KAUG 260053Z AUTO 14003KT 10SM FEW060 OVC110 10/05 A2951 RMK AO2 SLP993 T01000050
Loading
Personal Weather Stations






























Interactive Weather Map New forecast layout! Learn more

10-Day Weather Forecast

Advertisements
Track Severe Weather on mobile